sensor_id;sensor_type;location;lat;lon;timestamp;pressure;altitude;pressure_sealevel;temperature;humidity
64679;BME280;51094;53.864;27.676;2022-09-01T00:01:23;99165.50;;;11.23;59.19
64679;BME280;51094;53.864;27.676;2022-09-01T00:03:53;99286.88;;;11.94;59.36
64679;BME280;51094;53.864;27.676;2022-09-01T00:06:22;99301.00;;;12.03;59.25
64679;BME280;51094;53.864;27.676;2022-09-01T00:08:54;99273.47;;;11.77;59.41
64679;BME280;51094;53.864;27.676;2022-09-01T00:11:22;99314.47;;;11.97;59.56
64679;BME280;51094;53.864;27.676;2022-09-01T00:13:51;99311.06;;;11.96;59.47
64679;BME280;51094;53.864;27.676;2022-09-01T00:16:19;99168.28;;;11.09;59.33
64679;BME280;51094;53.864;27.676;2022-09-01T00:18:52;99317.78;;;11.88;59.62
64679;BME280;51094;53.864;27.676;2022-09-01T00:21:25;99284.41;;;11.58;59.43
64679;BME280;51094;53.864;27.676;2022-09-01T00:23:52;99174.31;;;10.75;60.07
64679;BME280;51094;53.864;27.676;2022-09-01T00:26:20;99286.81;;;11.37;61.12
64679;BME280;51094;53.864;27.676;2022-09-01T00:28:46;99083.88;;;10.19;60.94
64679;BME280;51094;53.864;27.676;2022-09-01T00:31:13;99176.47;;;10.81;60.84
64679;BME280;51094;53.864;27.676;2022-09-01T00:33:46;99314.72;;;11.70;60.33
64679;BME280;51094;53.864;27.676;2022-09-01T00:36:14;99231.63;;;11.21;60.33
64679;BME280;51094;53.864;27.676;2022-09-01T00:38:41;99212.19;;;11.14;60.22
64679;BME280;51094;53.864;27.676;2022-09-01T00:41:08;99158.38;;;10.79;60.09
64679;BME280;51094;53.864;27.676;2022-09-01T00:43:39;99322.63;;;11.81;60.37
64679;BME280;51094;53.864;27.676;2022-09-01T00:46:09;99322.50;;;11.83;59.71
64679;BME280;51094;53.864;27.676;2022-09-01T00:48:36;99327.09;;;11.79;60.16
64679;BME280;51094;53.864;27.676;2022-09-01T00:51:05;99308.22;;;11.64;60.19
64679;BME280;51094;53.864;27.676;2022-09-01T00:53:33;99336.59;;;11.80;59.70
64679;BME280;51094;53.864;27.676;2022-09-01T00:56:02;99345.75;;;11.62;60.15
64679;BME280;51094;53.864;27.676;2022-09-01T00:58:30;99333.44;;;11.75;60.19
64679;BME280;51094;53.864;27.676;2022-09-01T01:00:57;99284.97;;;11.50;60.18
64679;BME280;51094;53.864;27.676;2022-09-01T01:03:24;99330.31;;;11.83;59.65
64679;BME280;51094;53.864;27.676;2022-09-01T01:05:56;99158.38;;;10.31;59.96
64679;BME280;51094;53.864;27.676;2022-09-01T01:08:27;99335.13;;;11.76;59.51
64679;BME280;51094;53.864;27.676;2022-09-01T01:11:01;99193.69;;;10.71;59.45
64679;BME280;51094;53.864;27.676;2022-09-01T01:13:46;99302.97;;;11.53;60.00
64679;BME280;51094;53.864;27.676;2022-09-01T01:16:14;99325.88;;;11.72;59.58
64679;BME280;51094;53.864;27.676;2022-09-01T01:18:41;99321.91;;;11.79;59.71
64679;BME280;51094;53.864;27.676;2022-09-01T01:21:22;99260.09;;;11.46;58.85
64679;BME280;51094;53.864;27.676;2022-09-01T01:24:29;99319.47;;;11.76;58.90
64679;BME280;51094;53.864;27.676;2022-09-01T01:26:57;99271.72;;;11.18;59.30
64679;BME280;51094;53.864;27.676;2022-09-01T01:29:31;99312.09;;;11.59;59.38
64679;BME280;51094;53.864;27.676;2022-09-01T01:31:58;99288.50;;;11.49;59.43
64679;BME280;51094;53.864;27.676;2022-09-01T01:34:26;99308.13;;;11.66;59.29
64679;BME280;51094;53.864;27.676;2022-09-01T01:36:53;99316.53;;;11.70;59.45
64679;BME280;51094;53.864;27.676;2022-09-01T01:39:23;99310.72;;;11.66;59.32
64679;BME280;51094;53.864;27.676;2022-09-01T01:41:52;99311.44;;;11.68;59.22
64679;BME280;51094;53.864;27.676;2022-09-01T01:44:24;99309.28;;;11.62;59.23
64679;BME280;51094;53.864;27.676;2022-09-01T01:46:55;99243.44;;;11.14;59.63
64679;BME280;51094;53.864;27.676;2022-09-01T01:49:25;99296.94;;;11.53;59.27
64679;BME280;51094;53.864;27.676;2022-09-01T01:51:54;99199.03;;;11.04;59.26
64679;BME280;51094;53.864;27.676;2022-09-01T01:54:29;99279.31;;;11.56;58.98
64679;BME280;51094;53.864;27.676;2022-09-01T01:56:59;99266.75;;;11.50;58.84
64679;BME280;51094;53.864;27.676;2022-09-01T01:59:26;99318.75;;;11.74;58.94
64679;BME280;51094;53.864;27.676;2022-09-01T02:01:55;99313.44;;;11.64;58.95
64679;BME280;51094;53.864;27.676;2022-09-01T02:04:22;99307.34;;;11.53;59.30
64679;BME280;51094;53.864;27.676;2022-09-01T02:06:51;99309.47;;;11.48;59.76
64679;BME280;51094;53.864;27.676;2022-09-01T02:09:19;99319.38;;;11.43;60.09
64679;BME280;51094;53.864;27.676;2022-09-01T02:11:48;99307.78;;;11.47;59.63
64679;BME280;51094;53.864;27.676;2022-09-01T02:14:20;99207.59;;;10.82;59.40
64679;BME280;51094;53.864;27.676;2022-09-01T02:16:47;99310.78;;;11.53;59.63
64679;BME280;51094;53.864;27.676;2022-09-01T02:19:14;99177.47;;;10.67;59.42
64679;BME280;51094;53.864;27.676;2022-09-01T02:21:44;99313.44;;;11.41;59.41
64679;BME280;51094;53.864;27.676;2022-09-01T02:24:14;99233.63;;;10.93;59.99
64679;BME280;51094;53.864;27.676;2022-09-01T02:26:43;99310.72;;;11.42;59.77
64679;BME280;51094;53.864;27.676;2022-09-01T02:29:16;99316.31;;;11.49;59.78
64679;BME280;51094;53.864;27.676;2022-09-01T02:31:46;99305.19;;;11.47;59.62
64679;BME280;51094;53.864;27.676;2022-09-01T02:34:15;99306.59;;;11.40;59.95
64679;BME280;51094;53.864;27.676;2022-09-01T02:36:48;99312.94;;;11.36;60.39
64679;BME280;51094;53.864;27.676;2022-09-01T02:39:21;99313.44;;;11.41;60.41
64679;BME280;51094;53.864;27.676;2022-09-01T02:41:49;99185.38;;;10.65;60.14
64679;BME280;51094;53.864;27.676;2022-09-01T02:44:21;99251.56;;;11.09;59.92
64679;BME280;51094;53.864;27.676;2022-09-01T02:46:49;99313.13;;;11.45;60.08
64679;BME280;51094;53.864;27.676;2022-09-01T02:49:22;99296.84;;;11.30;60.00
64679;BME280;51094;53.864;27.676;2022-09-01T02:51:55;99312.00;;;11.37;60.25
64679;BME280;51094;53.864;27.676;2022-09-01T02:54:29;99305.00;;;11.26;60.01
64679;BME280;51094;53.864;27.676;2022-09-01T02:56:56;99314.94;;;11.32;60.46
64679;BME280;51094;53.864;27.676;2022-09-01T02:59:25;99314.34;;;11.28;60.57
64679;BME280;51094;53.864;27.676;2022-09-01T03:01:56;99324.28;;;11.23;60.51
64679;BME280;51094;53.864;27.676;2022-09-01T03:04:24;99222.00;;;10.62;60.25
64679;BME280;51094;53.864;27.676;2022-09-01T03:06:52;99321.56;;;11.25;60.78
64679;BME280;51094;53.864;27.676;2022-09-01T03:09:21;99324.38;;;11.22;60.08
64679;BME280;51094;53.864;27.676;2022-09-01T03:11:50;99366.88;;;11.22;60.12
64679;BME280;51094;53.864;27.676;2022-09-01T03:14:18;99298.28;;;10.87;60.40
64679;BME280;51094;53.864;27.676;2022-09-01T03:16:45;99296.97;;;11.05;60.44
64679;BME280;51094;53.864;27.676;2022-09-01T03:19:12;99277.53;;;10.98;60.40
64679;BME280;51094;53.864;27.676;2022-09-01T03:21:42;99364.75;;;11.27;60.81
64679;BME280;51094;53.864;27.676;2022-09-01T03:24:13;99269.63;;;10.76;60.84
64679;BME280;51094;53.864;27.676;2022-09-01T03:26:42;99327.75;;;11.11;61.03
64679;BME280;51094;53.864;27.676;2022-09-01T03:29:10;99302.22;;;10.92;61.08
64679;BME280;51094;53.864;27.676;2022-09-01T03:31:37;99325.25;;;11.10;61.10
64679;BME280;51094;53.864;27.676;2022-09-01T03:34:05;99311.34;;;10.98;61.60
64679;BME280;51094;53.864;27.676;2022-09-01T03:36:37;99331.81;;;11.15;61.11
64679;BME280;51094;53.864;27.676;2022-09-01T03:39:05;99333.34;;;11.18;61.09
64679;BME280;51094;53.864;27.676;2022-09-01T03:41:42;99197.78;;;10.38;60.90
64679;BME280;51094;53.864;27.676;2022-09-01T03:44:09;99334.00;;;11.09;61.89
64679;BME280;51094;53.864;27.676;2022-09-01T03:46:37;99309.78;;;10.95;61.66
64679;BME280;51094;53.864;27.676;2022-09-01T03:49:06;99195.50;;;10.21;61.86
64679;BME280;51094;53.864;27.676;2022-09-01T03:51:42;99203.91;;;10.37;62.03
64679;BME280;51094;53.864;27.676;2022-09-01T03:54:10;99273.69;;;10.91;61.80
64679;BME280;51094;53.864;27.676;2022-09-01T03:56:37;99336.50;;;11.34;61.43
64679;BME280;51094;53.864;27.676;2022-09-01T03:59:10;99240.78;;;10.79;61.02
64679;BME280;51094;53.864;27.676;2022-09-01T04:01:43;99336.78;;;11.42;61.51
64679;BME280;51094;53.864;27.676;2022-09-01T04:04:11;99341.44;;;11.50;61.27
64679;BME280;51094;53.864;27.676;2022-09-01T04:06:42;99300.88;;;11.34;60.97
64679;BME280;51094;53.864;27.676;2022-09-01T04:09:09;99335.00;;;11.66;60.95
64679;BME280;51094;53.864;27.676;2022-09-01T04:11:38;99267.47;;;11.28;60.72
64679;BME280;51094;53.864;27.676;2022-09-01T04:14:13;99370.97;;;11.73;60.57
64679;BME280;51094;53.864;27.676;2022-09-01T04:16:42;99328.69;;;11.93;60.25
64679;BME280;51094;53.864;27.676;2022-09-01T04:19:27;99332.16;;;12.16;59.81
64679;BME280;51094;53.864;27.676;2022-09-01T04:21:58;99330.75;;;12.23;58.13
64679;BME280;51094;53.864;27.676;2022-09-01T04:24:33;99111.91;;;10.86;58.39
64679;BME280;51094;53.864;27.676;2022-09-01T04:27:01;99225.94;;;11.73;58.74
64679;BME280;51094;53.864;27.676;2022-09-01T04:29:29;99245.88;;;11.85;58.36
64679;BME280;51094;53.864;27.676;2022-09-01T04:32:00;99329.34;;;12.41;58.07
64679;BME280;51094;53.864;27.676;2022-09-01T04:34:34;99321.53;;;12.41;57.47
64679;BME280;51094;53.864;27.676;2022-09-01T04:37:16;99358.25;;;12.38;57.44
64679;BME280;51094;53.864;27.676;2022-09-01T04:39:52;99320.22;;;12.36;57.62
64679;BME280;51094;53.864;27.676;2022-09-01T04:42:29;99173.91;;;11.38;57.75
64679;BME280;51094;53.864;27.676;2022-09-01T04:45:00;99313.91;;;12.27;57.59
64679;BME280;51094;53.864;27.676;2022-09-01T04:47:38;99322.22;;;12.10;57.78
64679;BME280;51094;53.864;27.676;2022-09-01T04:50:09;99319.78;;;11.84;58.09
64679;BME280;51094;53.864;27.676;2022-09-01T04:53:03;99322.03;;;11.89;58.75
64679;BME280;51094;53.864;27.676;2022-09-01T04:55:43;99222.50;;;11.26;58.10
64679;BME280;51094;53.864;27.676;2022-09-01T04:58:16;99324.50;;;11.79;58.63
64679;BME280;51094;53.864;27.676;2022-09-01T05:00:46;99277.28;;;11.49;58.83
64679;BME280;51094;53.864;27.676;2022-09-01T05:03:18;99302.13;;;11.77;58.78
64679;BME280;51094;53.864;27.676;2022-09-01T05:05:59;99213.56;;;11.42;58.97
64679;BME280;51094;53.864;27.676;2022-09-01T05:08:27;99254.81;;;11.70;58.07
64679;BME280;51094;53.864;27.676;2022-09-01T05:11:02;99325.41;;;12.24;57.96
64679;BME280;51094;53.864;27.676;2022-09-01T05:13:38;99321.03;;;12.36;57.43
64679;BME280;51094;53.864;27.676;2022-09-01T05:16:07;99217.56;;;11.81;57.41
64679;BME280;51094;53.864;27.676;2022-09-01T05:18:41;99306.00;;;12.40;56.08
64679;BME280;51094;53.864;27.676;2022-09-01T05:21:18;99288.53;;;12.18;56.46
64679;BME280;51094;53.864;27.676;2022-09-01T05:23:48;99291.16;;;12.29;56.39
64679;BME280;51094;53.864;27.676;2022-09-01T05:26:23;99357.66;;;12.57;56.06
64679;BME280;51094;53.864;27.676;2022-09-01T05:28:53;99213.91;;;11.94;56.17
64679;BME280;51094;53.864;27.676;2022-09-01T05:31:22;99322.69;;;12.71;55.69
64679;BME280;51094;53.864;27.676;2022-09-01T05:33:49;99249.69;;;12.26;55.81
64679;BME280;51094;53.864;27.676;2022-09-01T05:36:20;99318.88;;;12.75;55.88
64679;BME280;51094;53.864;27.676;2022-09-01T05:38:49;99317.22;;;12.85;55.65
64679;BME280;51094;53.864;27.676;2022-09-01T05:41:19;99323.97;;;12.98;55.71
64679;BME280;51094;53.864;27.676;2022-09-01T05:43:47;99326.16;;;13.14;55.62
64679;BME280;51094;53.864;27.676;2022-09-01T05:46:20;99252.22;;;12.82;54.40
64679;BME280;51094;53.864;27.676;2022-09-01T05:48:49;99077.38;;;11.63;53.62
64679;BME280;51094;53.864;27.676;2022-09-01T05:51:19;99301.91;;;13.35;52.53
64679;BME280;51094;53.864;27.676;2022-09-01T05:54:07;99317.22;;;13.60;52.43
64679;BME280;51094;53.864;27.676;2022-09-01T05:56:35;99310.81;;;13.64;51.55
64679;BME280;51094;53.864;27.676;2022-09-01T05:59:13;99321.53;;;13.50;51.04
64679;BME280;51094;53.864;27.676;2022-09-01T06:01:50;99243.16;;;12.97;51.36
64679;BME280;51094;53.864;27.676;2022-09-01T06:04:20;99316.44;;;13.48;51.27
64679;BME280;51094;53.864;27.676;2022-09-01T06:06:49;99281.53;;;13.28;51.48
64679;BME280;51094;53.864;27.676;2022-09-01T06:09:39;99287.09;;;13.56;51.85
64679;BME280;51094;53.864;27.676;2022-09-01T06:12:08;99208.22;;;13.09;51.07
64679;BME280;51094;53.864;27.676;2022-09-01T06:14:44;99228.38;;;13.18;51.77
64679;BME280;51094;53.864;27.676;2022-09-01T06:17:13;99300.91;;;13.88;51.73
64679;BME280;51094;53.864;27.676;2022-09-01T06:19:43;99254.22;;;13.74;51.04
64679;BME280;51094;53.864;27.676;2022-09-01T06:22:09;99279.75;;;13.91;50.81
64679;BME280;51094;53.864;27.676;2022-09-01T06:24:37;99299.94;;;13.89;50.94
64679;BME280;51094;53.864;27.676;2022-09-01T06:27:09;99288.19;;;13.74;51.12
64679;BME280;51094;53.864;27.676;2022-09-01T06:29:37;99252.09;;;13.68;51.04
64679;BME280;51094;53.864;27.676;2022-09-01T06:32:07;99217.38;;;13.77;50.96
64679;BME280;51094;53.864;27.676;2022-09-01T06:34:41;99311.50;;;14.38;49.61
64679;BME280;51094;53.864;27.676;2022-09-01T06:37:10;99254.69;;;13.89;50.31
64679;BME280;51094;53.864;27.676;2022-09-01T06:39:41;99289.50;;;14.10;50.12
64679;BME280;51094;53.864;27.676;2022-09-01T06:42:09;99290.81;;;14.25;50.43
64679;BME280;51094;53.864;27.676;2022-09-01T06:44:53;99318.91;;;14.54;49.25
64679;BME280;51094;53.864;27.676;2022-09-01T06:47:20;99303.06;;;14.35;47.96
64679;BME280;51094;53.864;27.676;2022-09-01T06:49:46;99072.84;;;13.05;48.56
64679;BME280;51094;53.864;27.676;2022-09-01T06:52:17;99257.81;;;14.04;48.13
64679;BME280;51094;53.864;27.676;2022-09-01T06:54:46;99326.22;;;14.39;49.12
64679;BME280;51094;53.864;27.676;2022-09-01T06:57:15;99324.00;;;14.55;49.04
64679;BME280;51094;53.864;27.676;2022-09-01T07:00:05;99241.69;;;14.29;47.88
64679;BME280;51094;53.864;27.676;2022-09-01T07:02:33;99199.94;;;14.18;47.61
64679;BME280;51094;53.864;27.676;2022-09-01T07:05:21;99320.69;;;15.03;47.72
64679;BME280;51094;53.864;27.676;2022-09-01T07:08:11;99338.50;;;15.09;46.96
64679;BME280;51094;53.864;27.676;2022-09-01T07:10:50;99334.66;;;15.32;46.83
64679;BME280;51094;53.864;27.676;2022-09-01T07:13:41;99334.13;;;15.48;45.57
64679;BME280;51094;53.864;27.676;2022-09-01T07:16:34;99244.47;;;15.06;44.71
64679;BME280;51094;53.864;27.676;2022-09-01T07:19:18;99240.91;;;15.07;44.95
64679;BME280;51094;53.864;27.676;2022-09-01T07:21:50;99269.28;;;15.21;45.18
64679;BME280;51094;53.864;27.676;2022-09-01T07:24:35;99273.41;;;15.24;45.27
64679;BME280;51094;53.864;27.676;2022-09-01T07:27:22;99219.41;;;15.13;44.37
64679;BME280;51094;53.864;27.676;2022-09-01T07:30:02;99305.47;;;15.56;43.28
64679;BME280;51094;53.864;27.676;2022-09-01T07:32:28;99243.09;;;15.21;43.87
64679;BME280;51094;53.864;27.676;2022-09-01T07:35:16;99311.09;;;15.81;43.66
64679;BME280;51094;53.864;27.676;2022-09-01T07:37:45;99344.28;;;16.19;42.39
64679;BME280;51094;53.864;27.676;2022-09-01T07:40:37;99302.78;;;15.85;41.33
64679;BME280;51094;53.864;27.676;2022-09-01T07:44:03;99344.75;;;15.76;41.17
64679;BME280;51094;53.864;27.676;2022-09-01T07:46:33;99317.16;;;15.43;41.18
64679;BME280;51094;53.864;27.676;2022-09-01T07:49:08;99353.28;;;15.49;42.06
64679;BME280;51094;53.864;27.676;2022-09-01T07:51:58;99351.34;;;15.31;42.92
64679;BME280;51094;53.864;27.676;2022-09-01T07:54:27;99317.00;;;15.25;43.89
64679;BME280;51094;53.864;27.676;2022-09-01T07:56:56;99343.06;;;15.26;43.46
64679;BME280;51094;53.864;27.676;2022-09-01T07:59:23;99289.72;;;14.58;44.34
64679;BME280;51094;53.864;27.676;2022-09-01T08:02:15;99145.47;;;13.31;44.48
64679;BME280;51094;53.864;27.676;2022-09-01T08:04:45;99364.19;;;14.33;46.18
64679;BME280;51094;53.864;27.676;2022-09-01T08:07:11;99360.56;;;14.67;45.44
64679;BME280;51094;53.864;27.676;2022-09-01T08:09:42;99336.94;;;14.97;44.78
64679;BME280;51094;53.864;27.676;2022-09-01T08:12:11;99322.03;;;15.57;43.64
64679;BME280;51094;53.864;27.676;2022-09-01T08:14:43;99336.91;;;16.42;42.13
64679;BME280;51094;53.864;27.676;2022-09-01T08:17:12;99373.59;;;17.16;39.99
64679;BME280;51094;53.864;27.676;2022-09-01T08:20:03;99356.81;;;17.26;39.28
64679;BME280;51094;53.864;27.676;2022-09-01T08:22:50;99357.75;;;17.08;39.33
64679;BME280;51094;53.864;27.676;2022-09-01T08:25:22;99241.69;;;16.12;38.36
64679;BME280;51094;53.864;27.676;2022-09-01T08:27:53;99358.06;;;16.77;38.89
64679;BME280;51094;53.864;27.676;2022-09-01T08:30:25;99325.00;;;16.84;38.55
64679;BME280;51094;53.864;27.676;2022-09-01T08:32:53;99353.94;;;17.38;37.43
64679;BME280;51094;53.864;27.676;2022-09-01T08:35:20;99348.38;;;17.68;38.07
64679;BME280;51094;53.864;27.676;2022-09-01T08:37:46;99360.19;;;17.90;36.55
64679;BME280;51094;53.864;27.676;2022-09-01T08:40:17;99345.75;;;17.41;37.01
64679;BME280;51094;53.864;27.676;2022-09-01T08:45:27;99383.00;;;17.18;37.71
64679;BME280;51094;53.864;27.676;2022-09-01T08:48:01;99393.84;;;17.06;38.24
64679;BME280;51094;53.864;27.676;2022-09-01T08:51:02;99275.94;;;16.11;38.66
64679;BME280;51094;53.864;27.676;2022-09-01T08:54:05;99331.41;;;16.35;37.81
64679;BME280;51094;53.864;27.676;2022-09-01T08:56:36;99349.75;;;16.82;38.50
64679;BME280;51094;53.864;27.676;2022-09-01T08:59:06;99332.44;;;16.89;38.36
64679;BME280;51094;53.864;27.676;2022-09-01T09:10:25;99363.03;;;17.25;38.23
64679;BME280;51094;53.864;27.676;2022-09-01T09:16:00;99343.34;;;18.01;36.32
64679;BME280;51094;53.864;27.676;2022-09-01T09:18:43;99354.63;;;18.11;34.80
64679;BME280;51094;53.864;27.676;2022-09-01T09:21:34;99357.69;;;17.35;33.53
64679;BME280;51094;53.864;27.676;2022-09-01T09:26:34;99356.78;;;16.81;36.31
64679;BME280;51094;53.864;27.676;2022-09-01T09:29:08;99221.38;;;15.87;37.13
64679;BME280;51094;53.864;27.676;2022-09-01T09:31:39;99317.94;;;16.85;36.85
64679;BME280;51094;53.864;27.676;2022-09-01T09:36:55;99342.69;;;17.63;34.52
64679;BME280;51094;53.864;27.676;2022-09-01T09:39:22;99336.09;;;17.77;35.27
64679;BME280;51094;53.864;27.676;2022-09-01T09:42:10;99268.78;;;17.48;35.32
64679;BME280;51094;53.864;27.676;2022-09-01T09:44:49;99353.31;;;18.67;34.85
64679;BME280;51094;53.864;27.676;2022-09-01T09:47:41;99341.84;;;18.84;34.65
64679;BME280;51094;53.864;27.676;2022-09-01T09:50:40;99343.72;;;18.91;33.77
64679;BME280;51094;53.864;27.676;2022-09-01T09:53:11;99326.78;;;19.02;32.44
64679;BME280;51094;53.864;27.676;2022-09-01T09:55:54;99325.53;;;19.47;32.08
64679;BME280;51094;53.864;27.676;2022-09-01T09:58:25;99295.03;;;18.70;32.31
64679;BME280;51094;53.864;27.676;2022-09-01T10:01:10;99378.06;;;18.82;33.26
64679;BME280;51094;53.864;27.676;2022-09-01T10:03:57;99395.84;;;18.54;33.68
64679;BME280;51094;53.864;27.676;2022-09-01T10:09:06;99355.38;;;18.03;34.92
64679;BME280;51094;53.864;27.676;2022-09-01T10:11:42;99354.44;;;17.69;35.53
64679;BME280;51094;53.864;27.676;2022-09-01T10:14:19;99355.66;;;17.74;35.66
64679;BME280;51094;53.864;27.676;2022-09-01T10:17:29;99371.06;;;17.69;36.03
64679;BME280;51094;53.864;27.676;2022-09-01T10:20:14;99368.25;;;17.53;35.91
64679;BME280;51094;53.864;27.676;2022-09-01T10:22:43;99341.63;;;17.38;35.90
64679;BME280;51094;53.864;27.676;2022-09-01T10:25:17;99388.88;;;17.48;35.80
64679;BME280;51094;53.864;27.676;2022-09-01T10:27:52;99258.94;;;16.97;35.17
64679;BME280;51094;53.864;27.676;2022-09-01T10:30:23;99373.19;;;17.56;35.01
64679;BME280;51094;53.864;27.676;2022-09-01T10:32:53;99344.38;;;17.01;35.56
64679;BME280;51094;53.864;27.676;2022-09-01T10:35:26;99396.09;;;17.46;35.25
64679;BME280;51094;53.864;27.676;2022-09-01T10:37:57;99370.13;;;17.60;33.86
64679;BME280;51094;53.864;27.676;2022-09-01T10:45:53;99369.22;;;17.07;35.90
64679;BME280;51094;53.864;27.676;2022-09-01T10:48:33;99143.56;;;15.78;35.85
64679;BME280;51094;53.864;27.676;2022-09-01T10:54:04;99367.22;;;18.85;34.28
64679;BME280;51094;53.864;27.676;2022-09-01T10:56:47;99364.28;;;20.44;30.94
64679;BME280;51094;53.864;27.676;2022-09-01T11:02:14;99370.25;;;20.05;30.08
64679;BME280;51094;53.864;27.676;2022-09-01T11:07:31;99275.88;;;18.17;31.83
64679;BME280;51094;53.864;27.676;2022-09-01T11:10:43;99369.91;;;18.93;32.48
64679;BME280;51094;53.864;27.676;2022-09-01T11:13:40;99365.13;;;19.63;32.01
64679;BME280;51094;53.864;27.676;2022-09-01T11:16:34;99362.22;;;21.40;28.65
64679;BME280;51094;53.864;27.676;2022-09-01T11:25:31;99352.41;;;22.32;28.31
64679;BME280;51094;53.864;27.676;2022-09-01T11:39:08;99377.69;;;23.59;24.25
64679;BME280;51094;53.864;27.676;2022-09-01T11:44:41;99352.06;;;25.39;22.96
64679;BME280;51094;53.864;27.676;2022-09-01T11:47:24;99348.38;;;23.67;24.08
64679;BME280;51094;53.864;27.676;2022-09-01T11:52:32;99356.56;;;28.77;20.53
64679;BME280;51094;53.864;27.676;2022-09-01T11:55:04;99252.91;;;31.85;17.40
64679;BME280;51094;53.864;27.676;2022-09-01T11:57:34;99274.13;;;34.09;14.19
64679;BME280;51094;53.864;27.676;2022-09-01T12:00:04;99357.88;;;35.59;13.26
64679;BME280;51094;53.864;27.676;2022-09-01T12:02:45;99325.47;;;36.84;11.89
64679;BME280;51094;53.864;27.676;2022-09-01T12:05:41;99350.50;;;35.24;12.89
64679;BME280;51094;53.864;27.676;2022-09-01T12:08:14;99351.59;;;36.45;11.77
64679;BME280;51094;53.864;27.676;2022-09-01T12:10:49;99342.47;;;37.49;11.55
64679;BME280;51094;53.864;27.676;2022-09-01T12:13:19;99363.19;;;38.03;10.65
64679;BME280;51094;53.864;27.676;2022-09-01T12:15:56;99336.88;;;33.30;13.76
64679;BME280;51094;53.864;27.676;2022-09-01T12:18:45;99258.19;;;28.25;17.33
64679;BME280;51094;53.864;27.676;2022-09-01T12:21:30;99311.44;;;25.04;21.08
64679;BME280;51094;53.864;27.676;2022-09-01T12:24:14;99358.97;;;22.66;23.31
64679;BME280;51094;53.864;27.676;2022-09-01T12:26:42;99330.47;;;22.09;24.61
64679;BME280;51094;53.864;27.676;2022-09-01T12:29:11;99355.38;;;23.17;23.89
64679;BME280;51094;53.864;27.676;2022-09-01T12:31:40;99344.69;;;24.45;22.46
64679;BME280;51094;53.864;27.676;2022-09-01T12:37:19;99359.31;;;22.18;25.36
64679;BME280;51094;53.864;27.676;2022-09-01T12:39:49;99384.03;;;20.72;28.33
64679;BME280;51094;53.864;27.676;2022-09-01T12:44:50;99349.13;;;20.05;29.77
64679;BME280;51094;53.864;27.676;2022-09-01T12:53:02;99334.56;;;25.03;22.29
64679;BME280;51094;53.864;27.676;2022-09-01T12:55:32;99320.13;;;23.81;22.48
64679;BME280;51094;53.864;27.676;2022-09-01T12:58:21;99299.81;;;21.54;25.40
64679;BME280;51094;53.864;27.676;2022-09-01T13:01:05;99293.72;;;19.97;27.28
64679;BME280;51094;53.864;27.676;2022-09-01T13:03:42;99330.34;;;19.84;28.29
64679;BME280;51094;53.864;27.676;2022-09-01T13:06:28;99328.78;;;19.24;29.37
64679;BME280;51094;53.864;27.676;2022-09-01T13:08:55;99020.41;;;17.18;29.59
64679;BME280;51094;53.864;27.676;2022-09-01T13:11:22;99132.66;;;17.60;30.13
64679;BME280;51094;53.864;27.676;2022-09-01T13:13:49;99246.31;;;17.98;30.90
64679;BME280;51094;53.864;27.676;2022-09-01T13:16:15;99240.78;;;17.83;30.54
64679;BME280;51094;53.864;27.676;2022-09-01T13:18:42;99253.59;;;18.04;30.23
64679;BME280;51094;53.864;27.676;2022-09-01T13:21:30;99343.09;;;18.38;31.14
64679;BME280;51094;53.864;27.676;2022-09-01T13:23:57;99347.19;;;18.06;32.02
64679;BME280;51094;53.864;27.676;2022-09-01T13:26:24;99300.09;;;21.97;25.94
64679;BME280;51094;53.864;27.676;2022-09-01T13:28:51;99326.09;;;26.13;21.27
64679;BME280;51094;53.864;27.676;2022-09-01T13:31:19;99195.19;;;28.29;17.85
64679;BME280;51094;53.864;27.676;2022-09-01T13:34:01;99331.00;;;26.43;18.34
64679;BME280;51094;53.864;27.676;2022-09-01T13:36:36;99332.16;;;23.83;21.15
64679;BME280;51094;53.864;27.676;2022-09-01T13:39:17;99326.72;;;22.03;23.57
64679;BME280;51094;53.864;27.676;2022-09-01T13:41:46;99323.25;;;21.34;24.92
64679;BME280;51094;53.864;27.676;2022-09-01T13:44:13;99334.97;;;20.78;25.87
64679;BME280;51094;53.864;27.676;2022-09-01T13:46:42;99337.91;;;20.03;26.80
64679;BME280;51094;53.864;27.676;2022-09-01T13:49:30;99093.88;;;17.96;27.78
64679;BME280;51094;53.864;27.676;2022-09-01T13:52:16;99330.91;;;19.13;28.11
64679;BME280;51094;53.864;27.676;2022-09-01T13:54:44;99336.34;;;19.03;27.57
64679;BME280;51094;53.864;27.676;2022-09-01T13:57:10;99330.69;;;18.90;27.86
64679;BME280;51094;53.864;27.676;2022-09-01T13:59:37;99334.81;;;18.92;28.39
64679;BME280;51094;53.864;27.676;2022-09-01T14:02:04;99339.81;;;18.70;28.37
64679;BME280;51094;53.864;27.676;2022-09-01T14:04:31;99273.69;;;17.87;28.80
64679;BME280;51094;53.864;27.676;2022-09-01T14:06:57;99302.53;;;17.97;28.44
64679;BME280;51094;53.864;27.676;2022-09-01T14:09:25;99254.25;;;18.40;27.70
64679;BME280;51094;53.864;27.676;2022-09-01T14:11:52;99241.34;;;20.95;24.07
64679;BME280;51094;53.864;27.676;2022-09-01T14:14:20;99336.25;;;24.07;21.68
64679;BME280;51094;53.864;27.676;2022-09-01T14:16:47;99219.47;;;23.93;20.94
64679;BME280;51094;53.864;27.676;2022-09-01T14:19:14;99242.59;;;22.49;21.79
64679;BME280;51094;53.864;27.676;2022-09-01T14:21:42;99249.72;;;20.45;24.55
64679;BME280;51094;53.864;27.676;2022-09-01T14:24:11;99316.63;;;20.05;26.33
64679;BME280;51094;53.864;27.676;2022-09-01T14:26:39;99267.63;;;20.10;26.38
64679;BME280;51094;53.864;27.676;2022-09-01T14:29:06;99338.06;;;23.58;23.26
64679;BME280;51094;53.864;27.676;2022-09-01T14:31:34;99245.66;;;24.84;20.91
64679;BME280;51094;53.864;27.676;2022-09-01T14:34:03;99317.50;;;24.43;21.42